Terminal Aerodrome Forecast
Issued by NWS Portland, OR

Home | Current Version | Previous Version | Text Only | Print | Product List | Glossary On
Versions: 1 2 3 4 5 6 7 8 9 10 11 12 13 14 15 16 17 18 19 20 21 22 23 24 25 26 27 28 29 30 31 32 33 34
000
FTUS46 KPQR 220851 AAA
TAFTTD
TAF AMD
KTTD 220851Z 2209/2306 22003KT P6SM SCT006 BKN020 OVC045
      TEMPO 2209/2213 3SM -RADZ BR BKN006 OVC020
     FM221400 00000KT 5SM BR VCSH SCT009 BKN020 OVC045
     FM222100 VRB02KT P6SM SCT020 OVC060=

USA.gov is the U.S. government's official web portal to all federal, state and local government web resources and services.